Time;durP1;ratioP1;P1;durP2;ratioP2;P2;SDS_P1;SDS_P2;PMS_P1;PMS_P2;Temp;Humidity;BMP_temperature;BMP_pressure;BME280_temperature;BME280_humidity;BME280_pressure;Samples;Min_cycle;Max_cycle;Signal;HPM_P1;HPM_P2
2022/05/29 00:00:50;;;;;;;;;5.50;0.50;;;;;12.99;50.78;101563.88;5061319;28;45334;-77
2022/05/29 00:03:16;;;;;;;;;6.00;4.00;;;;;12.95;50.76;101553.53;5061976;28;45307;-78
2022/05/29 00:05:42;;;;;;;;;5.50;4.75;;;;;12.93;50.10;101553.59;5061597;28;45225;-77
2022/05/29 00:08:13;;;;;;;;;4.00;2.00;;;;;12.93;50.12;101552.72;5061562;28;45334;-74
2022/05/29 00:10:41;;;;;;;;;2.00;2.00;;;;;12.90;52.16;101552.81;5060011;28;45358;-72
2022/05/29 00:13:06;;;;;;;;;2.00;1.75;;;;;12.91;50.83;101550.16;5060947;28;45572;-70
2022/05/29 00:15:31;;;;;;;;;8.00;5.50;;;;;12.89;50.37;101546.72;5060498;28;45231;-70
2022/05/29 00:17:57;;;;;;;;;1.50;1.50;;;;;12.83;51.51;101544.28;5061402;28;46225;-69
2022/05/29 00:20:22;;;;;;;;;3.00;1.25;;;;;12.78;51.75;101541.75;5054682;28;45297;-75
2022/05/29 00:22:48;;;;;;;;;2.00;2.00;;;;;12.78;51.63;101535.69;5060778;28;45292;-71
2022/05/29 00:25:13;;;;;;;;;3.00;3.00;;;;;12.76;50.40;101533.13;5060938;28;45323;-71
2022/05/29 00:27:39;;;;;;;;;1.00;1.00;;;;;12.73;53.43;101529.72;5060735;28;46234;-68
2022/05/29 00:30:08;;;;;;;;;1.00;1.00;;;;;12.70;52.06;101538.47;5061145;28;45448;-69
2022/05/29 00:32:34;;;;;;;;;2.25;2.25;;;;;12.63;52.11;101530.84;5047917;28;45330;-71
2022/05/29 00:34:59;;;;;;;;;2.50;2.00;;;;;12.60;51.65;101523.94;5061291;28;45242;-77
2022/05/29 00:37:25;;;;;;;;;2.75;1.50;;;;;12.57;52.92;101526.63;5061230;28;46173;-76
2022/05/29 00:39:53;;;;;;;;;0.00;0.00;;;;;12.51;53.50;101526.75;5060963;28;45467;-76
2022/05/29 00:42:24;;;;;;;;;1.25;1.00;;;;;12.49;52.51;101533.75;5061054;27;45230;-76
2022/05/29 00:44:50;;;;;;;;;1.00;1.00;;;;;12.44;52.97;101528.66;5059028;28;45796;-75
2022/05/29 00:47:19;;;;;;;;;1.75;1.75;;;;;12.38;53.21;101541.81;5060893;28;45477;-76
2022/05/29 00:49:47;;;;;;;;;4.75;2.25;;;;;12.29;52.30;101523.78;5060894;28;45520;-76
2022/05/29 00:52:19;;;;;;;;;1.00;1.00;;;;;12.28;55.35;101529.88;5061381;28;45350;-76
2022/05/29 00:54:56;;;;;;;;;1.50;1.00;;;;;12.23;53.39;101530.88;5060889;28;45342;-76
2022/05/29 00:57:29;;;;;;;;;3.25;2.00;;;;;12.24;54.19;101525.63;5060382;28;45457;-75
2022/05/29 01:00:02;;;;;;;;;3.75;2.00;;;;;12.24;53.40;101527.38;5060325;28;45789;-75
2022/05/29 01:02:28;;;;;;;;;2.00;2.00;;;;;12.18;54.72;101521.41;5060591;28;45295;-75
2022/05/29 01:04:53;;;;;;;;;8.75;5.00;;;;;12.16;53.64;101523.19;5060804;28;45277;-76
2022/05/29 01:07:22;;;;;;;;;4.00;4.00;;;;;12.14;53.79;101519.75;5092750;27;46442;-75
2022/05/29 01:09:49;;;;;;;;;10.25;8.50;;;;;12.14;54.24;101524.09;5060673;28;45430;-76
2022/05/29 01:12:37;;;;;;;;;9.00;6.25;;;;;12.09;55.11;101523.34;5060597;28;45311;-76
2022/05/29 01:15:08;;;;;;;;;5.00;5.00;;;;;12.04;54.28;101518.25;5060706;28;45348;-75
2022/05/29 01:17:46;;;;;;;;;5.00;3.00;;;;;11.99;56.12;101527.03;5060143;28;45593;-76
2022/05/29 01:20:24;;;;;;;;;3.00;3.00;;;;;11.87;55.96;101512.53;5059898;28;45311;-76
2022/05/29 01:23:20;;;;;;;;;2.00;2.00;;;;;11.84;56.82;101510.00;5059296;28;45351;-76
2022/05/29 01:26:10;;;;;;;;;2.00;1.75;;;;;11.79;56.33;101507.44;5055971;28;45308;-76
2022/05/29 01:28:44;;;;;;;;;2.75;2.25;;;;;11.76;57.02;101511.84;5058236;28;45469;-77
2022/05/29 01:31:25;;;;;;;;;1.00;1.00;;;;;11.77;56.51;101500.53;5057178;28;45908;-75
2022/05/29 01:34:21;;;;;;;;;4.50;2.00;;;;;11.69;56.82;101498.09;5054946;28;45409;-75
2022/05/29 01:37:24;;;;;;;;;1.25;1.25;;;;;11.69;59.27;101507.66;5054170;28;45415;-75
2022/05/29 01:40:07;;;;;;;;;4.75;2.00;;;;;11.58;59.67;101506.09;5052794;28;46397;-74
2022/05/29 01:42:42;;;;;;;;;1.00;1.00;;;;;11.54;57.98;101498.38;5057079;28;45441;-75
2022/05/29 01:45:13;;;;;;;;;2.75;2.75;;;;;11.52;60.68;101500.16;5054945;28;45868;-67
2022/05/29 01:47:52;;;;;;;;;1.00;1.00;;;;;11.45;59.83;101503.78;5056721;28;45536;-72
2022/05/29 01:50:34;;;;;;;;;2.50;2.00;;;;;11.40;60.01;101487.38;5086759;27;47028;-69
2022/05/29 01:53:20;;;;;;;;;0.75;0.75;;;;;11.32;62.61;101492.72;5055530;28;45970;-70
2022/05/29 01:55:53;;;;;;;;;0.75;0.75;;;;;11.33;60.66;101489.25;5055862;28;45760;-66
2022/05/29 01:58:24;;;;;;;;;3.00;2.00;;;;;11.32;61.95;101499.69;5051855;28;45489;-66
2022/05/29 02:00:53;;;;;;;;;2.00;2.00;;;;;11.30;60.57;101498.84;5054830;28;45563;-66
2022/05/29 02:03:27;;;;;;;;;2.00;2.00;;;;;11.28;61.50;101494.53;5057337;28;46311;-68
2022/05/29 02:05:58;;;;;;;;;3.00;1.25;;;;;11.26;61.54;101498.06;5056156;28;45613;-67
2022/05/29 02:08:26;;;;;;;;;1.00;1.00;;;;;11.29;61.38;101508.41;5055987;28;45465;-66
2022/05/29 02:11:03;;;;;;;;;3.00;1.75;;;;;11.22;60.88;101492.06;5056831;28;45582;-65
2022/05/29 02:13:33;;;;;;;;;2.00;1.50;;;;;11.21;61.77;101490.34;5057602;28;45753;-65
2022/05/29 02:16:13;;;;;;;;;1.00;1.00;;;;;11.20;62.76;101498.16;5057784;28;45319;-65
2022/05/29 02:18:52;;;;;;;;;3.00;1.00;;;;;11.17;62.00;101487.81;5056952;28;45639;-66
2022/05/29 02:21:19;;;;;;;;;3.00;3.00;;;;;11.13;63.72;101487.00;5055569;28;45675;-67
2022/05/29 02:23:53;;;;;;;;;3.25;3.25;;;;;11.11;62.67;101483.56;5059454;28;45819;-67
2022/05/29 02:26:29;;;;;;;;;1.75;1.75;;;;;11.11;63.27;101488.78;5058426;28;45315;-67
2022/05/29 02:29:00;;;;;;;;;2.75;2.50;;;;;11.05;63.81;101475.88;5059086;28;45197;-67
2022/05/29 02:31:52;;;;;;;;;4.50;2.00;;;;;11.01;63.56;101479.41;5091989;27;47117;-67
2022/05/29 02:34:30;;;;;;;;;2.50;1.75;;;;;10.97;65.40;101482.94;5054727;28;45812;-67
2022/05/29 02:37:22;;;;;;;;;2.50;1.50;;;;;10.90;65.71;101487.41;5058432;28;45398;-67
2022/05/29 02:40:17;;;;;;;;;2.25;2.25;;;;;10.86;63.95;101477.94;5063434;28;45327;-67
2022/05/29 02:42:51;;;;;;;;;3.00;2.00;;;;;10.85;62.68;101477.97;5071531;28;45469;-67
2022/05/29 02:45:56;;;;;;;;;2.00;2.00;;;;;10.86;65.32;101484.88;5061746;28;45318;-67
2022/05/29 02:48:33;;;;;;;;;2.00;2.00;;;;;10.84;63.29;101473.66;5058792;28;45280;-67
2022/05/29 02:51:07;;;;;;;;;2.25;2.25;;;;;10.82;64.44;101472.81;5059127;28;45316;-67
2022/05/29 02:53:34;;;;;;;;;5.50;2.00;;;;;10.77;65.45;101466.81;5058922;28;46326;-67
2022/05/29 02:56:04;;;;;;;;;6.75;1.00;;;;;10.71;66.31;101466.94;5059058;28;45774;-67
2022/05/29 02:58:32;;;;;;;;;1.00;1.00;;;;;10.73;64.40;101466.03;5070617;28;45655;-67
2022/05/29 03:01:17;;;;;;;;;2.75;2.75;;;;;10.76;63.91;101465.09;5058343;28;45371;-67
2022/05/29 03:04:01;;;;;;;;;3.00;3.00;;;;;10.80;63.34;101461.56;5058848;28;46239;-67
2022/05/29 03:06:45;;;;;;;;;3.00;2.00;;;;;10.82;64.70;101457.22;5059058;28;45570;-67
2022/05/29 03:09:49;;;;;;;;;3.25;2.00;;;;;10.82;63.27;101457.22;5058685;28;45329;-67
2022/05/29 03:12:31;;;;;;;;;2.00;2.00;;;;;10.76;65.79;101460.75;5058869;28;45580;-67
2022/05/29 03:15:20;;;;;;;;;3.50;1.25;;;;;10.75;64.17;101461.66;5064749;28;47235;-65
2022/05/29 03:17:58;;;;;;;;;2.50;2.50;;;;;10.73;63.88;101463.41;5064439;28;45303;-65
2022/05/29 03:20:43;;;;;;;;;6.75;3.00;;;;;10.68;67.33;101461.78;5057397;28;45659;-65
2022/05/29 03:23:15;;;;;;;;;4.00;2.50;;;;;10.68;63.46;101461.78;5063105;28;45468;-65
2022/05/29 03:25:59;;;;;;;;;2.50;2.00;;;;;10.65;64.03;101455.75;5065347;28;46417;-65
2022/05/29 03:28:30;;;;;;;;;2.25;2.25;;;;;10.69;64.32;101463.50;5062123;28;45271;-65
2022/05/29 03:30:58;;;;;;;;;6.25;2.75;;;;;10.63;66.76;101462.72;5062105;28;45331;-65
2022/05/29 03:33:23;;;;;;;;;0.50;0.50;;;;;10.60;64.61;101460.16;5062380;28;45250;-65
2022/05/29 03:35:52;;;;;;;;;2.00;2.00;;;;;10.60;64.84;101454.09;5065346;28;47356;-65
2022/05/29 03:38:18;;;;;;;;;3.25;2.00;;;;;10.53;64.45;101444.69;5062824;28;45301;-65
2022/05/29 03:40:45;;;;;;;;;3.00;3.00;;;;;10.56;64.05;101453.28;5063195;28;45316;-65
2022/05/29 03:43:10;;;;;;;;;3.00;3.00;;;;;10.55;66.42;101453.31;5061420;28;45395;-65
2022/05/29 03:45:35;;;;;;;;;2.75;2.75;;;;;10.46;65.80;101441.34;5071525;28;46581;-65
2022/05/29 03:48:02;;;;;;;;;2.75;2.75;;;;;10.46;65.70;101446.53;5064812;28;45448;-65
2022/05/29 03:50:28;;;;;;;;;3.00;3.00;;;;;10.44;65.79;101445.72;5065893;28;45500;-65
2022/05/29 03:52:54;;;;;;;;;2.00;1.75;;;;;10.39;69.00;101444.03;5067866;28;45295;-65
2022/05/29 03:55:21;;;;;;;;;5.50;2.50;;;;;10.33;66.58;101439.81;5061686;28;45221;-65
2022/05/29 03:57:48;;;;;;;;;3.75;1.50;;;;;10.31;67.09;101452.81;5064936;28;46118;-65
2022/05/29 04:00:15;;;;;;;;;3.75;3.00;;;;;10.28;66.21;101446.81;5066982;28;45786;-66
2022/05/29 04:02:41;;;;;;;;;3.00;2.00;;;;;10.30;65.60;101451.09;5069735;28;45555;-66
2022/05/29 04:05:08;;;;;;;;;2.25;2.00;;;;;10.32;66.28;101451.06;5060716;28;45289;-66
2022/05/29 04:13:02;;;;;;;;;2.25;2.00;;;;;10.24;67.19;101451.22;5071278;28;45508;-65
2022/05/29 04:15:28;;;;;;;;;2.00;2.00;;;;;10.26;66.78;101452.03;5063448;28;46544;-65
2022/05/29 04:17:53;;;;;;;;;4.00;4.00;;;;;10.25;66.64;101452.06;5062961;28;45546;-65
2022/05/29 04:20:19;;;;;;;;;3.75;3.75;;;;;10.28;67.89;101454.59;5059702;28;45177;-66
2022/05/29 04:22:45;;;;;;;;;5.50;3.00;;;;;10.31;66.19;101449.38;5071218;28;45534;-65
2022/05/29 04:25:11;;;;;;;;;4.00;2.75;;;;;10.31;67.42;101449.38;5064281;28;45288;-65
2022/05/29 04:27:36;;;;;;;;;4.00;2.00;;;;;10.25;69.10;101450.31;5060792;28;45603;-67
2022/05/29 04:30:02;;;;;;;;;3.25;3.25;;;;;10.28;66.62;101452.88;5060129;28;45344;-65
2022/05/29 04:35:11;;;;;;;;;2.50;2.50;;;;;10.35;66.82;101453.63;5049944;28;45240;-67
2022/05/29 04:37:37;;;;;;;;;2.00;2.00;;;;;10.37;68.17;101454.47;5065388;28;45399;-67
2022/05/29 04:40:03;;;;;;;;;2.00;2.00;;;;;10.38;66.43;101448.38;5060553;28;45474;-67
2022/05/29 04:42:28;;;;;;;;;6.00;3.50;;;;;10.40;65.72;101440.56;5092790;27;45976;-67
2022/05/29 04:44:54;;;;;;;;;4.75;2.00;;;;;10.41;68.77;101453.56;5060307;28;47149;-67
2022/05/29 04:47:19;;;;;;;;;4.00;3.00;;;;;10.35;68.06;101456.22;5059993;28;45489;-67
2022/05/29 04:49:45;;;;;;;;;3.50;1.00;;;;;10.34;67.98;101447.56;5079608;27;45291;-67
2022/05/29 04:52:10;;;;;;;;;3.00;3.00;;;;;10.38;67.36;101445.78;5063309;28;45468;-67
2022/05/29 04:54:40;;;;;;;;;3.00;1.00;;;;;10.40;67.78;101450.94;5090868;27;46282;-67
2022/05/29 04:57:07;;;;;;;;;7.25;2.25;;;;;10.43;66.92;101456.97;5074822;28;45897;-66
2022/05/29 04:59:34;;;;;;;;;2.00;2.00;;;;;10.42;67.98;101450.06;5052925;28;45291;-66
2022/05/29 05:02:00;;;;;;;;;3.00;2.00;;;;;10.47;67.03;101445.66;5071601;28;45423;-66
2022/05/29 05:04:26;;;;;;;;;5.00;4.00;;;;;10.48;68.88;101444.78;5069721;28;47266;-66
2022/05/29 05:06:56;;;;;;;;;3.50;2.00;;;;;10.49;67.37;101438.69;5063320;28;45446;-66
2022/05/29 05:09:22;;;;;;;;;6.50;3.00;;;;;10.51;67.91;101449.91;5063643;28;45495;-66
2022/05/29 05:11:47;;;;;;;;;6.25;3.00;;;;;10.51;68.65;101446.47;5074725;28;45482;-66
2022/05/29 05:14:13;;;;;;;;;6.50;5.00;;;;;10.54;67.10;101438.59;5071984;28;45400;-66
2022/05/29 05:16:38;;;;;;;;;4.00;3.00;;;;;10.58;67.60;101446.31;5063433;28;45976;-66
2022/05/29 05:19:04;;;;;;;;;5.50;3.00;;;;;10.64;66.76;101440.19;5069934;28;45456;-66
2022/05/29 05:21:29;;;;;;;;;7.00;4.00;;;;;10.68;67.47;101446.19;5059595;28;45388;-66
2022/05/29 05:23:54;;;;;;;;;3.00;3.00;;;;;10.71;66.77;101440.94;5062609;28;45465;-66
2022/05/29 05:26:20;;;;;;;;;7.50;1.75;;;;;10.75;66.94;101442.59;5058027;28;45374;-66
2022/05/29 05:28:45;;;;;;;;;4.00;2.75;;;;;10.79;66.60;101446.84;5060376;28;45398;-66
2022/05/29 05:31:11;;;;;;;;;6.00;3.00;;;;;10.81;67.41;101437.28;5063731;28;45431;-66
2022/05/29 05:33:36;;;;;;;;;5.00;2.25;;;;;10.83;67.97;101436.41;5059750;28;46182;-65
2022/05/29 05:36:02;;;;;;;;;2.00;0.00;;;;;10.86;66.64;101446.75;5060036;28;45310;-65
2022/05/29 05:38:27;;;;;;;;;2.00;2.00;;;;;10.91;67.00;101434.50;5059204;28;45541;-65
2022/05/29 05:40:52;;;;;;;;;3.00;1.50;;;;;10.98;68.61;101440.44;5059405;28;45406;-65
2022/05/29 05:43:19;;;;;;;;;2.00;2.00;;;;;11.00;67.91;101441.28;5057505;28;46205;-65
2022/05/29 05:45:44;;;;;;;;;3.00;3.00;;;;;11.04;67.55;101429.09;5054538;28;45557;-74
2022/05/29 05:48:10;;;;;;;;;1.00;1.00;;;;;11.15;67.30;101438.41;5060122;28;45230;-67
2022/05/29 05:50:37;;;;;;;;;6.25;3.00;;;;;11.20;67.59;101440.91;5058785;28;45458;-66
2022/05/29 05:53:02;;;;;;;;;4.75;3.25;;;;;11.28;67.04;101439.91;5062780;28;45382;-66
2022/05/29 05:55:28;;;;;;;;;2.00;2.00;;;;;11.33;67.36;101444.16;5059021;28;45354;-66
2022/05/29 05:57:53;;;;;;;;;3.50;0.50;;;;;11.37;67.18;101446.66;5059057;28;46995;-66
2022/05/29 06:00:19;;;;;;;;;4.00;2.00;;;;;11.41;67.29;101437.03;5059801;28;45402;-66
2022/05/29 06:02:45;;;;;;;;;4.00;3.00;;;;;11.47;66.79;101435.19;5058489;28;45552;-67
2022/05/29 06:05:13;;;;;;;;;2.25;2.00;;;;;11.58;66.19;101438.41;5061724;28;45419;-67
2022/05/29 06:07:39;;;;;;;;;3.75;2.75;;;;;11.68;65.88;101438.25;5060184;28;45338;-67
2022/05/29 06:10:06;;;;;;;;;7.00;3.00;;;;;11.75;66.15;101432.88;5055547;28;45560;-67
2022/05/29 06:12:32;;;;;;;;;4.00;3.50;;;;;11.85;65.76;101439.63;5074956;28;45536;-68
2022/05/29 06:14:58;;;;;;;;;3.50;2.00;;;;;11.96;65.28;101428.13;5061904;28;45685;-65
2022/05/29 06:17:24;;;;;;;;;2.50;2.00;;;;;12.04;64.72;101429.66;5063350;28;45382;-65
2022/05/29 06:19:49;;;;;;;;;1.50;1.50;;;;;12.09;64.49;101426.97;5058332;28;46796;-79
2022/05/29 06:22:15;;;;;;;;;3.50;2.00;;;;;12.15;63.96;101424.19;5072661;28;47143;-66
2022/05/29 06:24:40;;;;;;;;;2.00;2.00;;;;;12.22;63.65;101424.94;5070652;28;45333;-65
2022/05/29 06:27:05;;;;;;;;;1.25;1.25;;;;;12.27;63.43;101433.50;5059674;28;45268;-65
2022/05/29 06:29:32;;;;;;;;;4.00;2.50;;;;;12.33;63.13;101426.38;5058549;28;45407;-69
2022/05/29 06:32:03;;;;;;;;;3.25;2.00;;;;;12.45;63.23;101425.25;5059174;28;45491;-65
2022/05/29 06:34:29;;;;;;;;;1.75;1.25;;;;;12.56;62.84;101424.97;5057975;28;45494;-70
2022/05/29 06:36:54;;;;;;;;;5.50;2.25;;;;;12.61;62.47;101410.91;5059548;28;45359;-69
2022/05/29 06:39:22;;;;;;;;;1.75;1.00;;;;;12.73;62.01;101420.19;5059283;28;45343;-67
2022/05/29 06:41:48;;;;;;;;;2.00;2.00;;;;;12.80;61.67;101424.34;5059218;28;46219;-67
2022/05/29 06:44:13;;;;;;;;;3.75;2.00;;;;;12.89;61.38;101433.69;5059267;28;45182;-66
2022/05/29 06:46:39;;;;;;;;;2.00;2.00;;;;;12.92;61.18;101428.41;5074871;28;45243;-66
2022/05/29 06:49:04;;;;;;;;;4.00;1.00;;;;;13.00;61.03;101432.50;5058971;28;45202;-68
2022/05/29 06:51:30;;;;;;;;;5.00;2.75;;;;;13.12;60.24;101433.94;5058812;28;45606;-67
2022/05/29 06:53:56;;;;;;;;;2.75;1.00;;;;;13.22;59.71;101432.00;5058768;28;45237;-68
2022/05/29 06:56:22;;;;;;;;;3.00;3.00;;;;;13.20;59.72;101429.41;5060094;28;45239;-66
2022/05/29 06:58:48;;;;;;;;;1.00;0.00;;;;;13.21;58.76;101432.84;5062492;28;45602;-67
2022/05/29 07:07:16;;;;;;;;;3.00;3.00;;;;;13.29;57.49;101428.31;5061289;28;45474;-68
2022/05/29 07:09:42;;;;;;;;;6.50;4.00;;;;;13.35;58.07;101425.50;5061925;28;45458;-68
2022/05/29 07:12:16;;;;;;;;;3.50;2.00;;;;;13.36;57.65;101430.69;5062073;28;45437;-67
2022/05/29 07:14:52;;;;;;;;;2.75;2.25;;;;;13.43;57.61;101426.16;5061033;28;45319;-67
2022/05/29 07:17:18;;;;;;;;;5.00;3.00;;;;;13.49;57.47;101422.53;5062637;28;45318;-67
2022/05/29 07:19:44;;;;;;;;;2.50;2.00;;;;;13.49;57.26;101410.31;5061987;28;45228;-66
2022/05/29 07:22:11;;;;;;;;;2.00;1.00;;;;;13.61;55.72;101414.31;5061676;28;45395;-65
2022/05/29 07:24:38;;;;;;;;;6.00;2.50;;;;;13.55;54.66;101412.75;5061704;28;45805;-65
2022/05/29 07:27:05;;;;;;;;;2.00;1.00;;;;;13.67;54.70;101422.84;5094427;27;45364;-65
2022/05/29 07:29:30;;;;;;;;;3.25;2.00;;;;;13.77;54.88;101419.94;5061676;28;45501;-64
2022/05/29 07:31:56;;;;;;;;;2.00;2.00;;;;;13.83;53.77;101418.03;5061327;28;46347;-65
2022/05/29 07:34:21;;;;;;;;;0.00;0.00;;;;;13.87;54.56;101422.25;5062686;28;45310;-63
2022/05/29 07:36:49;;;;;;;;;1.00;1.00;;;;;13.91;53.80;101421.25;5061911;28;45383;-63
2022/05/29 07:39:16;;;;;;;;;0.25;0.25;;;;;14.11;54.28;101412.81;5061906;28;46404;-63
2022/05/29 07:44:25;;;;;;;;;2.00;2.00;;;;;14.22;53.80;101421.19;5059473;28;45551;-63
2022/05/29 07:46:50;;;;;;;;;1.00;1.00;;;;;14.30;54.02;101418.31;5061575;28;45831;-63
2022/05/29 07:49:16;;;;;;;;;1.75;1.50;;;;;14.40;53.76;101416.22;5061431;28;45477;-63
2022/05/29 07:51:41;;;;;;;;;2.00;2.00;;;;;14.40;53.47;101414.47;5061094;28;45463;-67
2022/05/29 07:54:06;;;;;;;;;2.00;2.00;;;;;14.30;51.61;101413.94;5061062;28;45444;-66
2022/05/29 07:56:32;;;;;;;;;3.00;2.00;;;;;14.26;52.42;101417.56;5061846;28;45212;-65
2022/05/29 07:58:57;;;;;;;;;0.75;0.75;;;;;14.30;51.93;101418.31;5062030;28;45552;-68
2022/05/29 08:01:23;;;;;;;;;2.00;2.00;;;;;14.51;51.81;101420.25;5060880;28;45310;-67
2022/05/29 08:03:48;;;;;;;;;1.00;1.00;;;;;14.72;51.09;101416.06;5061057;28;45415;-67
2022/05/29 08:06:14;;;;;;;;;2.25;1.00;;;;;14.99;50.90;101419.50;5061565;28;45602;-67
2022/05/29 08:08:40;;;;;;;;;3.50;3.00;;;;;15.14;51.23;101415.47;5060739;28;45509;-67
2022/05/29 08:11:05;;;;;;;;;2.00;2.00;;;;;15.34;50.03;101422.63;5061791;28;46715;-65
2022/05/29 08:13:31;;;;;;;;;2.25;1.25;;;;;15.45;50.24;101410.00;5061811;28;45323;-66
2022/05/29 08:15:57;;;;;;;;;1.00;1.00;;;;;15.42;50.58;101405.75;5061717;28;45291;-69
2022/05/29 08:18:23;;;;;;;;;1.00;1.00;;;;;15.34;48.74;101417.38;5094665;27;45762;-67
2022/05/29 08:20:50;;;;;;;;;1.75;1.75;;;;;15.25;48.77;101410.72;5061295;28;46493;-64
2022/05/29 08:23:15;;;;;;;;;2.50;1.00;;;;;15.20;46.92;101405.63;5061784;28;45572;-67
2022/05/29 08:31:08;;;;;;;;;3.00;2.00;;;;;15.00;47.33;101407.25;5061376;28;45951;-66
2022/05/29 08:33:35;;;;;;;;;2.00;0.75;;;;;14.99;48.01;101401.16;5058212;28;45370;-70
2022/05/29 08:36:00;;;;;;;;;2.00;2.00;;;;;15.17;48.12;101402.28;5061274;28;45371;-65
2022/05/29 08:38:27;;;;;;;;;1.00;1.00;;;;;15.34;47.57;101391.19;5061276;28;45227;-64
2022/05/29 08:41:03;;;;;;;;;1.00;1.00;;;;;15.51;46.64;101396.66;5061314;28;45672;-63
2022/05/29 08:43:36;;;;;;;;;1.00;1.00;;;;;15.59;46.30;101396.41;5061274;28;45745;-64
2022/05/29 08:46:26;;;;;;;;;3.00;1.00;;;;;15.64;46.16;101378.75;5061135;28;45247;-64
2022/05/29 08:48:54;;;;;;;;;2.00;2.00;;;;;15.65;46.27;101396.19;5054404;28;45508;-64
2022/05/29 08:51:31;;;;;;;;;2.00;2.00;;;;;15.68;46.74;101388.22;5060868;28;45449;-65
2022/05/29 08:54:11;;;;;;;;;1.00;1.00;;;;;15.74;46.66;101385.34;5061302;28;45621;-65
2022/05/29 08:56:51;;;;;;;;;2.00;2.00;;;;;15.78;46.13;101384.31;5059424;28;45536;-65
2022/05/29 08:59:31;;;;;;;;;1.00;1.00;;;;;15.85;44.49;101377.94;5056407;28;45242;-65
2022/05/29 09:02:07;;;;;;;;;1.00;1.00;;;;;15.79;45.33;101388.63;5059405;28;46402;-64
2022/05/29 09:05:01;;;;;;;;;2.00;2.00;;;;;15.68;45.56;101375.97;5061161;28;45676;-63
2022/05/29 09:07:32;;;;;;;;;3.75;1.00;;;;;15.75;45.01;101369.56;5057017;28;45777;-65
2022/05/29 09:10:09;;;;;;;;;2.00;2.00;;;;;15.74;45.75;101375.72;5058180;28;45351;-63
2022/05/29 09:12:49;;;;;;;;;1.00;1.00;;;;;15.69;45.59;101371.56;5057466;28;47485;-68
2022/05/29 09:15:36;;;;;;;;;1.75;1.75;;;;;15.77;45.14;101370.34;5060909;28;45611;-65
2022/05/29 09:18:08;;;;;;;;;0.75;0.75;;;;;15.81;44.08;101365.84;5046778;28;45437;-66
2022/05/29 09:21:15;;;;;;;;;3.00;1.75;;;;;15.95;42.36;101362.69;5059903;28;45414;-66
2022/05/29 09:23:49;;;;;;;;;2.00;0.50;;;;;16.04;43.01;101378.91;4973068;28;45478;-65
2022/05/29 09:26:18;;;;;;;;;1.00;1.00;;;;;16.05;43.01;101364.88;5048551;28;45412;-65
2022/05/29 09:28:44;;;;;;;;;1.00;1.00;;;;;16.04;42.39;101357.94;5053584;28;45366;-68
2022/05/29 09:31:17;;;;;;;;;1.75;1.00;;;;;16.08;43.19;101370.00;5060410;28;45594;-69
2022/05/29 09:33:43;;;;;;;;;1.00;1.00;;;;;16.04;43.74;101357.94;5060417;28;46345;-69
2022/05/29 09:36:14;;;;;;;;;1.25;1.00;;;;;16.21;42.93;101361.63;5093077;27;45580;-70
2022/05/29 09:38:48;;;;;;;;;0.00;0.00;;;;;16.24;42.31;101354.50;5056038;28;45468;-70
2022/05/29 09:41:16;;;;;;;;;1.00;0.00;;;;;16.25;43.41;101353.59;5053195;28;45446;-70
2022/05/29 09:44:04;;;;;;;;;2.75;1.00;;;;;16.22;42.67;101350.22;5060096;28;45647;-69
2022/05/29 09:46:32;;;;;;;;;1.25;1.25;;;;;16.09;43.19;101349.88;5059052;28;45772;-70
2022/05/29 09:51:57;;;;;;;;;2.25;2.25;;;;;16.01;43.43;101341.47;5059992;28;45274;-72
2022/05/29 09:54:32;;;;;;;;;1.75;1.50;;;;;16.02;43.76;101343.19;5060055;28;45402;-70
2022/05/29 09:57:13;;;;;;;;;2.00;2.00;;;;;15.91;43.05;101345.38;5060165;28;45918;-63
2022/05/29 09:59:43;;;;;;;;;2.00;0.00;;;;;15.90;43.54;101352.38;5048009;28;45367;-63
2022/05/29 10:02:22;;;;;;;;;3.00;2.00;;;;;15.98;43.67;101337.19;5060031;28;45477;-65
2022/05/29 10:04:51;;;;;;;;;2.25;2.00;;;;;16.08;43.38;101340.31;5054693;28;45368;-69
2022/05/29 10:07:34;;;;;;;;;3.00;1.00;;;;;16.10;42.72;101335.84;5059959;28;45251;-67
2022/05/29 10:10:07;;;;;;;;;2.00;1.00;;;;;16.16;43.05;101335.59;5060003;28;45307;-68
2022/05/29 10:12:43;;;;;;;;;1.00;0.00;;;;;16.29;42.42;101333.34;5051599;28;45296;-71
2022/05/29 10:15:34;;;;;;;;;1.00;1.00;;;;;16.62;42.80;101328.44;5052873;28;48134;-72
2022/05/29 10:18:04;;;;;;;;;1.50;1.50;;;;;16.92;42.55;101319.22;5048234;28;45375;-68
2022/05/29 10:21:06;;;;;;;;;2.00;0.25;;;;;16.91;38.93;101342.94;5059721;28;45452;-66
2022/05/29 10:23:36;;;;;;;;;1.00;1.00;;;;;16.72;39.27;101324.50;5059650;28;45339;-69
2022/05/29 10:26:09;;;;;;;;;1.00;1.00;;;;;16.61;39.56;101327.56;5059707;28;45220;-63
2022/05/29 10:28:37;;;;;;;;;1.00;1.00;;;;;16.61;39.92;101324.06;5059751;28;45686;-63
2022/05/29 10:31:07;;;;;;;;;1.50;1.50;;;;;16.65;40.67;101317.81;5059664;28;45733;-67
2022/05/29 10:33:34;;;;;;;;;3.00;1.25;;;;;16.78;40.20;101323.38;5053569;28;45287;-64
2022/05/29 10:36:15;;;;;;;;;3.00;2.50;;;;;16.89;40.84;101321.16;5051434;28;47284;-64
2022/05/29 10:38:41;;;;;;;;;1.00;1.00;;;;;16.93;39.09;101318.31;5059372;28;45277;-66
2022/05/29 10:41:10;;;;;;;;;2.00;2.00;;;;;16.91;40.70;101319.31;5059756;28;45541;-63
2022/05/29 10:43:40;;;;;;;;;2.50;1.75;;;;;16.98;41.12;101316.31;5059685;28;45303;-71
2022/05/29 10:46:19;;;;;;;;;2.75;2.00;;;;;17.26;39.72;101305.44;5059253;28;45467;-73
2022/05/29 10:49:10;;;;;;;;;3.00;2.00;;;;;17.56;38.45;101302.28;5059584;28;45536;-74
2022/05/29 10:51:57;;;;;;;;;1.50;1.50;;;;;17.74;39.30;101290.91;5059466;28;45306;-69
2022/05/29 10:54:48;;;;;;;;;3.00;3.00;;;;;17.64;37.84;101300.16;5055117;28;45319;-68
2022/05/29 10:57:19;;;;;;;;;1.75;1.75;;;;;17.51;38.20;101297.25;5059306;28;45478;-66
2022/05/29 11:00:20;;;;;;;;;2.00;2.00;;;;;17.48;39.29;101286.03;5053091;28;45231;-70
2022/05/29 11:03:19;;;;;;;;;1.75;1.75;;;;;17.50;39.20;101281.56;5041970;28;45664;-69
2022/05/29 11:06:23;;;;;;;;;1.00;1.00;;;;;17.44;38.26;101285.34;5059269;28;45201;-70
2022/05/29 11:09:02;;;;;;;;;2.00;0.00;;;;;17.35;37.24;101283.13;5059089;28;45411;-74
2022/05/29 11:11:57;;;;;;;;;2.50;2.00;;;;;17.41;38.26;101281.97;5059345;28;45368;-70
2022/05/29 11:14:42;;;;;;;;;3.00;1.75;;;;;17.53;38.58;101286.66;5054447;28;45580;-76
2022/05/29 11:17:20;;;;;;;;;3.00;2.00;;;;;17.71;38.64;101283.19;5052827;28;45751;-74
2022/05/29 11:20:19;;;;;;;;;1.50;1.00;;;;;17.69;38.12;101271.91;5052662;28;46340;-72
2022/05/29 11:23:09;;;;;;;;;3.00;2.00;;;;;17.83;37.62;101284.38;5057479;28;45638;-79
2022/05/29 11:25:56;;;;;;;;;1.50;1.50;;;;;18.05;35.00;101278.91;5056523;28;45611;-69
2022/05/29 11:28:53;;;;;;;;;2.75;1.00;;;;;18.28;37.42;101268.06;5058270;28;45333;-68
2022/05/29 11:31:24;;;;;;;;;0.75;0.75;;;;;18.34;37.07;101267.75;5048488;28;45530;-69
2022/05/29 11:34:08;;;;;;;;;4.00;2.75;;;;;18.34;37.07;101265.13;5053962;28;46446;-69
2022/05/29 11:36:55;;;;;;;;;3.50;2.00;;;;;18.24;36.64;101266.53;5055503;28;45350;-68
2022/05/29 11:39:50;;;;;;;;;0.75;0.50;;;;;18.12;34.02;101261.88;5050028;28;45806;-72
2022/05/29 11:42:22;;;;;;;;;2.50;2.50;;;;;18.06;35.25;101249.91;4990044;28;45628;-66
2022/05/29 11:45:03;;;;;;;;;1.75;1.75;;;;;18.24;36.00;101245.47;5061484;28;45375;-63
2022/05/29 11:53:24;;;;;;;;;3.50;2.00;;;;;18.71;35.39;101236.91;5061871;28;45662;-64
2022/05/29 11:55:55;;;;;;;;;3.00;1.25;;;;;18.74;35.77;101224.44;5061445;28;45353;-65
2022/05/29 11:58:23;;;;;;;;;2.75;2.75;;;;;18.91;35.83;101217.41;5062013;28;45311;-65
2022/05/29 12:01:33;;;;;;;;;3.00;2.00;;;;;19.12;35.94;101222.34;5057223;28;45383;-65
2022/05/29 12:04:20;;;;;;;;;3.50;3.00;;;;;19.03;34.55;101208.84;5057467;28;46817;-64
2022/05/29 12:06:54;;;;;;;;;2.50;2.50;;;;;18.78;35.93;101217.19;5060400;28;45735;-66
2022/05/29 12:09:30;;;;;;;;;1.00;1.00;;;;;18.65;35.18;101205.66;5092173;27;45648;-67
2022/05/29 12:12:01;;;;;;;;;4.00;1.75;;;;;18.61;35.87;101198.78;5060123;28;45361;-66
2022/05/29 12:14:42;;;;;;;;;1.00;1.00;;;;;18.64;35.93;101204.81;5059877;28;45654;-68
2022/05/29 12:17:29;;;;;;;;;3.75;1.00;;;;;18.67;35.38;101196.72;5060609;28;45336;-68
2022/05/29 12:20:22;;;;;;;;;1.25;1.25;;;;;18.77;34.69;101212.88;5060651;28;45417;-68